sensor_id;sensor_type;location;lat;lon;timestamp;P1;durP1;ratioP1;P2;durP2;ratioP2
9117;SDS011;4594;50.994;7.126;2024-01-07T00:02:10;10.57;;;7.97;;
9117;SDS011;4594;50.994;7.126;2024-01-07T00:04:36;11.70;;;8.47;;
9117;SDS011;4594;50.994;7.126;2024-01-07T00:07:03;12.30;;;8.33;;
9117;SDS011;4594;50.994;7.126;2024-01-07T00:09:29;10.73;;;8.20;;
9117;SDS011;4594;50.994;7.126;2024-01-07T00:11:55;10.43;;;7.60;;
9117;SDS011;4594;50.994;7.126;2024-01-07T00:14:21;11.37;;;7.33;;
9117;SDS011;4594;50.994;7.126;2024-01-07T00:16:46;10.13;;;7.10;;
9117;SDS011;4594;50.994;7.126;2024-01-07T00:19:12;8.50;;;6.67;;
9117;SDS011;4594;50.994;7.126;2024-01-07T00:21:38;9.93;;;7.13;;
9117;SDS011;4594;50.994;7.126;2024-01-07T00:24:04;8.37;;;6.77;;
9117;SDS011;4594;50.994;7.126;2024-01-07T00:26:30;8.40;;;6.43;;
9117;SDS011;4594;50.994;7.126;2024-01-07T00:28:55;9.30;;;7.27;;
9117;SDS011;4594;50.994;7.126;2024-01-07T00:31:21;10.20;;;6.83;;
9117;SDS011;4594;50.994;7.126;2024-01-07T00:33:47;6.77;;;5.83;;
9117;SDS011;4594;50.994;7.126;2024-01-07T00:36:12;8.57;;;6.63;;
9117;SDS011;4594;50.994;7.126;2024-01-07T00:38:38;7.60;;;6.23;;
9117;SDS011;4594;50.994;7.126;2024-01-07T00:41:04;6.93;;;6.23;;
9117;SDS011;4594;50.994;7.126;2024-01-07T00:43:29;7.37;;;6.40;;
9117;SDS011;4594;50.994;7.126;2024-01-07T00:45:55;7.87;;;6.60;;
9117;SDS011;4594;50.994;7.126;2024-01-07T00:48:21;7.53;;;6.23;;
9117;SDS011;4594;50.994;7.126;2024-01-07T00:50:46;8.20;;;6.03;;
9117;SDS011;4594;50.994;7.126;2024-01-07T00:53:12;9.23;;;7.07;;
9117;SDS011;4594;50.994;7.126;2024-01-07T00:55:38;7.90;;;6.03;;
9117;SDS011;4594;50.994;7.126;2024-01-07T00:58:03;6.60;;;5.70;;
9117;SDS011;4594;50.994;7.126;2024-01-07T01:00:29;8.13;;;6.43;;
9117;SDS011;4594;50.994;7.126;2024-01-07T01:02:55;7.10;;;6.13;;
9117;SDS011;4594;50.994;7.126;2024-01-07T01:05:21;9.53;;;6.03;;
9117;SDS011;4594;50.994;7.126;2024-01-07T01:07:46;7.07;;;6.37;;
9117;SDS011;4594;50.994;7.126;2024-01-07T01:10:12;8.40;;;6.23;;
9117;SDS011;4594;50.994;7.126;2024-01-07T01:12:41;8.60;;;6.60;;
9117;SDS011;4594;50.994;7.126;2024-01-07T01:15:08;6.43;;;5.80;;
9117;SDS011;4594;50.994;7.126;2024-01-07T01:17:34;7.83;;;6.70;;
9117;SDS011;4594;50.994;7.126;2024-01-07T01:20:00;7.23;;;5.80;;
9117;SDS011;4594;50.994;7.126;2024-01-07T01:22:25;6.97;;;6.27;;
9117;SDS011;4594;50.994;7.126;2024-01-07T01:24:51;9.53;;;6.60;;
9117;SDS011;4594;50.994;7.126;2024-01-07T01:27:18;7.07;;;6.30;;
9117;SDS011;4594;50.994;7.126;2024-01-07T01:29:44;13.47;;;6.53;;
9117;SDS011;4594;50.994;7.126;2024-01-07T01:32:11;7.73;;;5.80;;
9117;SDS011;4594;50.994;7.126;2024-01-07T01:34:36;7.27;;;6.20;;
9117;SDS011;4594;50.994;7.126;2024-01-07T01:37:02;7.57;;;6.33;;
9117;SDS011;4594;50.994;7.126;2024-01-07T01:39:28;8.10;;;5.97;;
9117;SDS011;4594;50.994;7.126;2024-01-07T01:41:54;8.03;;;6.60;;
9117;SDS011;4594;50.994;7.126;2024-01-07T01:44:20;11.53;;;6.90;;
9117;SDS011;4594;50.994;7.126;2024-01-07T01:46:46;10.03;;;7.20;;
9117;SDS011;4594;50.994;7.126;2024-01-07T01:49:12;11.63;;;7.43;;
9117;SDS011;4594;50.994;7.126;2024-01-07T01:51:39;11.47;;;8.00;;
9117;SDS011;4594;50.994;7.126;2024-01-07T01:54:06;11.60;;;8.23;;
9117;SDS011;4594;50.994;7.126;2024-01-07T01:56:32;11.60;;;7.90;;
9117;SDS011;4594;50.994;7.126;2024-01-07T01:58:59;14.27;;;8.40;;
9117;SDS011;4594;50.994;7.126;2024-01-07T02:01:25;13.10;;;8.80;;
9117;SDS011;4594;50.994;7.126;2024-01-07T02:03:51;14.77;;;8.83;;
9117;SDS011;4594;50.994;7.126;2024-01-07T02:06:18;13.63;;;8.43;;
9117;SDS011;4594;50.994;7.126;2024-01-07T02:08:45;13.80;;;9.27;;
9117;SDS011;4594;50.994;7.126;2024-01-07T02:11:18;14.90;;;10.20;;
9117;SDS011;4594;50.994;7.126;2024-01-07T02:13:46;18.50;;;10.80;;
9117;SDS011;4594;50.994;7.126;2024-01-07T02:16:13;15.07;;;10.40;;
9117;SDS011;4594;50.994;7.126;2024-01-07T02:18:43;15.70;;;10.23;;
9117;SDS011;4594;50.994;7.126;2024-01-07T02:21:11;18.23;;;11.67;;
9117;SDS011;4594;50.994;7.126;2024-01-07T02:23:38;17.93;;;10.90;;
9117;SDS011;4594;50.994;7.126;2024-01-07T02:26:04;18.07;;;12.33;;
9117;SDS011;4594;50.994;7.126;2024-01-07T02:28:31;18.67;;;12.03;;
9117;SDS011;4594;50.994;7.126;2024-01-07T02:30:59;16.60;;;11.50;;
9117;SDS011;4594;50.994;7.126;2024-01-07T02:33:25;18.77;;;12.07;;
9117;SDS011;4594;50.994;7.126;2024-01-07T02:35:51;17.57;;;11.63;;
9117;SDS011;4594;50.994;7.126;2024-01-07T02:38:16;17.87;;;10.90;;
9117;SDS011;4594;50.994;7.126;2024-01-07T02:40:42;18.83;;;11.53;;
9117;SDS011;4594;50.994;7.126;2024-01-07T02:43:08;15.63;;;10.33;;
9117;SDS011;4594;50.994;7.126;2024-01-07T02:45:34;15.37;;;10.47;;
9117;SDS011;4594;50.994;7.126;2024-01-07T02:47:59;13.60;;;9.53;;
9117;SDS011;4594;50.994;7.126;2024-01-07T02:50:25;15.70;;;9.93;;
9117;SDS011;4594;50.994;7.126;2024-01-07T02:52:51;12.87;;;9.03;;
9117;SDS011;4594;50.994;7.126;2024-01-07T02:55:16;12.37;;;9.10;;
9117;SDS011;4594;50.994;7.126;2024-01-07T02:57:43;10.73;;;8.60;;
9117;SDS011;4594;50.994;7.126;2024-01-07T03:00:09;14.80;;;9.27;;
9117;SDS011;4594;50.994;7.126;2024-01-07T03:02:35;11.63;;;8.23;;
9117;SDS011;4594;50.994;7.126;2024-01-07T03:05:01;12.00;;;9.00;;
9117;SDS011;4594;50.994;7.126;2024-01-07T03:07:27;9.50;;;7.80;;
9117;SDS011;4594;50.994;7.126;2024-01-07T03:09:54;11.30;;;7.83;;
9117;SDS011;4594;50.994;7.126;2024-01-07T03:12:19;9.53;;;7.33;;
9117;SDS011;4594;50.994;7.126;2024-01-07T03:14:45;10.00;;;7.37;;
9117;SDS011;4594;50.994;7.126;2024-01-07T03:17:11;12.23;;;7.87;;
9117;SDS011;4594;50.994;7.126;2024-01-07T03:19:37;11.03;;;7.90;;
9117;SDS011;4594;50.994;7.126;2024-01-07T03:22:03;10.80;;;7.63;;
9117;SDS011;4594;50.994;7.126;2024-01-07T03:24:32;10.50;;;7.33;;
9117;SDS011;4594;50.994;7.126;2024-01-07T03:26:57;11.90;;;8.17;;
9117;SDS011;4594;50.994;7.126;2024-01-07T03:29:23;9.63;;;7.30;;
9117;SDS011;4594;50.994;7.126;2024-01-07T03:31:49;10.90;;;7.50;;
9117;SDS011;4594;50.994;7.126;2024-01-07T03:34:15;11.97;;;8.00;;
9117;SDS011;4594;50.994;7.126;2024-01-07T03:36:41;11.87;;;8.50;;
9117;SDS011;4594;50.994;7.126;2024-01-07T03:39:07;13.57;;;8.43;;
9117;SDS011;4594;50.994;7.126;2024-01-07T03:41:33;12.70;;;8.33;;
9117;SDS011;4594;50.994;7.126;2024-01-07T03:43:59;12.23;;;8.53;;
9117;SDS011;4594;50.994;7.126;2024-01-07T03:46:24;13.40;;;8.90;;
9117;SDS011;4594;50.994;7.126;2024-01-07T03:48:50;13.13;;;8.77;;
9117;SDS011;4594;50.994;7.126;2024-01-07T03:51:16;10.63;;;8.17;;
9117;SDS011;4594;50.994;7.126;2024-01-07T03:53:41;17.23;;;9.67;;
9117;SDS011;4594;50.994;7.126;2024-01-07T03:56:07;11.33;;;8.27;;
9117;SDS011;4594;50.994;7.126;2024-01-07T03:58:33;11.93;;;8.60;;
9117;SDS011;4594;50.994;7.126;2024-01-07T04:01:00;12.33;;;8.60;;
9117;SDS011;4594;50.994;7.126;2024-01-07T04:03:25;11.40;;;7.93;;
9117;SDS011;4594;50.994;7.126;2024-01-07T04:05:51;13.27;;;8.40;;
9117;SDS011;4594;50.994;7.126;2024-01-07T04:08:17;13.73;;;9.60;;
9117;SDS011;4594;50.994;7.126;2024-01-07T04:10:43;10.70;;;8.10;;
9117;SDS011;4594;50.994;7.126;2024-01-07T04:13:09;10.67;;;8.23;;
9117;SDS011;4594;50.994;7.126;2024-01-07T04:15:34;13.90;;;9.23;;
9117;SDS011;4594;50.994;7.126;2024-01-07T04:18:01;11.63;;;8.23;;
9117;SDS011;4594;50.994;7.126;2024-01-07T04:20:28;12.60;;;8.17;;
9117;SDS011;4594;50.994;7.126;2024-01-07T04:22:54;12.03;;;8.37;;
9117;SDS011;4594;50.994;7.126;2024-01-07T04:25:20;14.67;;;9.00;;
9117;SDS011;4594;50.994;7.126;2024-01-07T04:27:46;12.97;;;8.97;;
9117;SDS011;4594;50.994;7.126;2024-01-07T04:30:12;13.00;;;9.20;;
9117;SDS011;4594;50.994;7.126;2024-01-07T04:32:38;11.43;;;8.50;;
9117;SDS011;4594;50.994;7.126;2024-01-07T04:35:04;13.30;;;9.07;;
9117;SDS011;4594;50.994;7.126;2024-01-07T04:37:31;13.40;;;8.73;;
9117;SDS011;4594;50.994;7.126;2024-01-07T04:39:57;15.30;;;9.63;;
9117;SDS011;4594;50.994;7.126;2024-01-07T04:42:23;11.87;;;8.30;;
9117;SDS011;4594;50.994;7.126;2024-01-07T04:44:48;13.90;;;8.90;;
9117;SDS011;4594;50.994;7.126;2024-01-07T04:47:27;11.87;;;9.00;;
9117;SDS011;4594;50.994;7.126;2024-01-07T04:49:54;13.07;;;9.20;;
9117;SDS011;4594;50.994;7.126;2024-01-07T04:52:21;13.63;;;9.13;;
9117;SDS011;4594;50.994;7.126;2024-01-07T04:54:47;13.10;;;9.27;;
9117;SDS011;4594;50.994;7.126;2024-01-07T04:57:15;11.80;;;8.50;;
9117;SDS011;4594;50.994;7.126;2024-01-07T04:59:44;16.00;;;10.33;;
9117;SDS011;4594;50.994;7.126;2024-01-07T05:02:11;12.03;;;8.63;;
9117;SDS011;4594;50.994;7.126;2024-01-07T05:04:37;15.53;;;10.53;;
9117;SDS011;4594;50.994;7.126;2024-01-07T05:07:03;14.30;;;9.63;;
9117;SDS011;4594;50.994;7.126;2024-01-07T05:09:29;14.30;;;9.93;;
9117;SDS011;4594;50.994;7.126;2024-01-07T05:11:55;13.90;;;9.50;;
9117;SDS011;4594;50.994;7.126;2024-01-07T05:14:21;14.97;;;10.17;;
9117;SDS011;4594;50.994;7.126;2024-01-07T05:16:47;11.47;;;8.93;;
9117;SDS011;4594;50.994;7.126;2024-01-07T05:19:13;12.37;;;8.80;;
9117;SDS011;4594;50.994;7.126;2024-01-07T05:21:39;13.00;;;8.77;;
9117;SDS011;4594;50.994;7.126;2024-01-07T05:24:05;13.50;;;9.43;;
9117;SDS011;4594;50.994;7.126;2024-01-07T05:26:31;12.47;;;9.13;;
9117;SDS011;4594;50.994;7.126;2024-01-07T05:29:03;12.70;;;8.77;;
9117;SDS011;4594;50.994;7.126;2024-01-07T05:31:29;14.00;;;9.07;;
9117;SDS011;4594;50.994;7.126;2024-01-07T05:33:55;13.53;;;9.10;;
9117;SDS011;4594;50.994;7.126;2024-01-07T05:36:20;12.70;;;9.47;;
9117;SDS011;4594;50.994;7.126;2024-01-07T05:38:46;11.87;;;9.03;;
9117;SDS011;4594;50.994;7.126;2024-01-07T05:41:12;13.60;;;9.73;;
9117;SDS011;4594;50.994;7.126;2024-01-07T05:43:38;13.47;;;9.57;;
9117;SDS011;4594;50.994;7.126;2024-01-07T05:46:03;14.67;;;9.97;;
9117;SDS011;4594;50.994;7.126;2024-01-07T05:48:29;12.87;;;9.20;;
9117;SDS011;4594;50.994;7.126;2024-01-07T05:50:55;14.83;;;9.37;;
9117;SDS011;4594;50.994;7.126;2024-01-07T05:53:20;12.90;;;9.57;;
9117;SDS011;4594;50.994;7.126;2024-01-07T05:55:46;12.87;;;9.57;;
9117;SDS011;4594;50.994;7.126;2024-01-07T05:58:11;12.40;;;9.23;;
9117;SDS011;4594;50.994;7.126;2024-01-07T06:00:37;13.37;;;9.73;;
9117;SDS011;4594;50.994;7.126;2024-01-07T06:03:03;15.77;;;10.43;;
9117;SDS011;4594;50.994;7.126;2024-01-07T06:05:29;15.53;;;10.40;;
9117;SDS011;4594;50.994;7.126;2024-01-07T06:07:55;14.20;;;10.00;;
9117;SDS011;4594;50.994;7.126;2024-01-07T06:10:21;14.03;;;9.27;;
9117;SDS011;4594;50.994;7.126;2024-01-07T06:12:47;13.73;;;9.77;;
9117;SDS011;4594;50.994;7.126;2024-01-07T06:15:13;14.60;;;10.33;;
9117;SDS011;4594;50.994;7.126;2024-01-07T06:17:38;14.37;;;10.20;;
9117;SDS011;4594;50.994;7.126;2024-01-07T06:20:04;15.57;;;10.87;;
9117;SDS011;4594;50.994;7.126;2024-01-07T06:22:31;12.90;;;9.33;;
9117;SDS011;4594;50.994;7.126;2024-01-07T06:24:56;14.13;;;9.83;;
9117;SDS011;4594;50.994;7.126;2024-01-07T06:27:22;14.83;;;9.73;;
9117;SDS011;4594;50.994;7.126;2024-01-07T06:29:48;14.10;;;9.60;;
9117;SDS011;4594;50.994;7.126;2024-01-07T06:32:13;15.40;;;10.40;;
9117;SDS011;4594;50.994;7.126;2024-01-07T06:34:39;16.27;;;10.20;;
9117;SDS011;4594;50.994;7.126;2024-01-07T06:37:05;15.87;;;10.60;;
9117;SDS011;4594;50.994;7.126;2024-01-07T06:39:32;14.67;;;10.07;;
9117;SDS011;4594;50.994;7.126;2024-01-07T06:41:59;16.10;;;10.60;;
9117;SDS011;4594;50.994;7.126;2024-01-07T06:44:24;16.13;;;11.07;;
9117;SDS011;4594;50.994;7.126;2024-01-07T06:46:50;14.20;;;10.40;;
9117;SDS011;4594;50.994;7.126;2024-01-07T06:49:16;15.77;;;10.83;;
9117;SDS011;4594;50.994;7.126;2024-01-07T06:51:41;15.70;;;10.33;;
9117;SDS011;4594;50.994;7.126;2024-01-07T06:54:07;13.23;;;9.73;;
9117;SDS011;4594;50.994;7.126;2024-01-07T06:56:33;13.60;;;9.90;;
9117;SDS011;4594;50.994;7.126;2024-01-07T06:58:58;11.70;;;8.93;;
9117;SDS011;4594;50.994;7.126;2024-01-07T07:01:25;13.07;;;9.70;;
9117;SDS011;4594;50.994;7.126;2024-01-07T07:03:50;12.53;;;9.37;;
9117;SDS011;4594;50.994;7.126;2024-01-07T07:06:16;13.13;;;9.80;;
9117;SDS011;4594;50.994;7.126;2024-01-07T07:08:42;13.23;;;9.47;;
9117;SDS011;4594;50.994;7.126;2024-01-07T07:11:08;12.33;;;8.70;;
9117;SDS011;4594;50.994;7.126;2024-01-07T07:13:34;10.63;;;8.57;;
9117;SDS011;4594;50.994;7.126;2024-01-07T07:16:00;13.93;;;9.17;;
9117;SDS011;4594;50.994;7.126;2024-01-07T07:18:26;12.33;;;9.23;;
9117;SDS011;4594;50.994;7.126;2024-01-07T07:20:52;11.97;;;8.57;;
9117;SDS011;4594;50.994;7.126;2024-01-07T07:23:17;12.10;;;8.47;;
9117;SDS011;4594;50.994;7.126;2024-01-07T07:25:43;11.43;;;8.80;;
9117;SDS011;4594;50.994;7.126;2024-01-07T07:28:09;10.97;;;8.40;;
9117;SDS011;4594;50.994;7.126;2024-01-07T07:30:35;13.47;;;8.53;;
9117;SDS011;4594;50.994;7.126;2024-01-07T07:33:02;10.50;;;7.97;;
9117;SDS011;4594;50.994;7.126;2024-01-07T07:35:28;8.97;;;7.80;;
9117;SDS011;4594;50.994;7.126;2024-01-07T07:37:53;10.73;;;8.17;;
9117;SDS011;4594;50.994;7.126;2024-01-07T07:40:20;11.47;;;8.47;;
9117;SDS011;4594;50.994;7.126;2024-01-07T07:42:45;10.97;;;8.43;;
9117;SDS011;4594;50.994;7.126;2024-01-07T07:45:11;12.50;;;9.00;;
9117;SDS011;4594;50.994;7.126;2024-01-07T07:47:37;11.47;;;8.40;;
9117;SDS011;4594;50.994;7.126;2024-01-07T07:50:06;11.90;;;8.20;;
9117;SDS011;4594;50.994;7.126;2024-01-07T07:52:32;9.73;;;8.03;;
9117;SDS011;4594;50.994;7.126;2024-01-07T07:54:58;12.23;;;8.60;;
9117;SDS011;4594;50.994;7.126;2024-01-07T07:57:23;11.97;;;7.90;;
9117;SDS011;4594;50.994;7.126;2024-01-07T07:59:50;11.53;;;8.43;;
9117;SDS011;4594;50.994;7.126;2024-01-07T08:02:16;11.77;;;8.13;;
9117;SDS011;4594;50.994;7.126;2024-01-07T08:04:42;12.53;;;9.30;;
9117;SDS011;4594;50.994;7.126;2024-01-07T08:07:09;10.67;;;8.60;;
9117;SDS011;4594;50.994;7.126;2024-01-07T08:09:35;11.33;;;8.60;;
9117;SDS011;4594;50.994;7.126;2024-01-07T08:12:04;11.53;;;8.27;;
9117;SDS011;4594;50.994;7.126;2024-01-07T08:14:31;12.27;;;8.73;;
9117;SDS011;4594;50.994;7.126;2024-01-07T08:16:58;11.93;;;8.67;;
9117;SDS011;4594;50.994;7.126;2024-01-07T08:19:24;10.63;;;8.40;;
9117;SDS011;4594;50.994;7.126;2024-01-07T08:21:50;12.67;;;9.20;;
9117;SDS011;4594;50.994;7.126;2024-01-07T08:24:15;12.93;;;9.40;;
9117;SDS011;4594;50.994;7.126;2024-01-07T08:26:41;18.00;;;10.53;;
9117;SDS011;4594;50.994;7.126;2024-01-07T08:29:07;16.10;;;10.07;;
9117;SDS011;4594;50.994;7.126;2024-01-07T08:31:32;16.63;;;9.93;;
9117;SDS011;4594;50.994;7.126;2024-01-07T08:33:58;15.17;;;9.90;;
9117;SDS011;4594;50.994;7.126;2024-01-07T08:36:24;13.50;;;9.27;;
9117;SDS011;4594;50.994;7.126;2024-01-07T08:38:50;16.60;;;10.83;;
9117;SDS011;4594;50.994;7.126;2024-01-07T08:41:16;14.00;;;10.27;;
9117;SDS011;4594;50.994;7.126;2024-01-07T08:43:42;14.77;;;9.57;;
9117;SDS011;4594;50.994;7.126;2024-01-07T08:46:08;15.70;;;10.10;;
9117;SDS011;4594;50.994;7.126;2024-01-07T08:48:34;14.17;;;10.33;;
9117;SDS011;4594;50.994;7.126;2024-01-07T08:51:00;13.87;;;9.47;;
9117;SDS011;4594;50.994;7.126;2024-01-07T08:53:25;16.07;;;9.77;;
9117;SDS011;4594;50.994;7.126;2024-01-07T08:55:51;17.73;;;11.20;;
9117;SDS011;4594;50.994;7.126;2024-01-07T08:58:17;14.97;;;10.27;;
9117;SDS011;4594;50.994;7.126;2024-01-07T09:00:43;15.47;;;10.50;;
9117;SDS011;4594;50.994;7.126;2024-01-07T09:03:09;15.30;;;10.23;;
9117;SDS011;4594;50.994;7.126;2024-01-07T09:05:35;16.73;;;9.93;;
9117;SDS011;4594;50.994;7.126;2024-01-07T09:08:01;16.53;;;9.97;;
9117;SDS011;4594;50.994;7.126;2024-01-07T09:10:30;18.93;;;11.70;;
9117;SDS011;4594;50.994;7.126;2024-01-07T09:12:59;15.27;;;10.17;;
9117;SDS011;4594;50.994;7.126;2024-01-07T09:15:25;17.83;;;11.37;;
9117;SDS011;4594;50.994;7.126;2024-01-07T09:17:50;15.93;;;10.73;;
9117;SDS011;4594;50.994;7.126;2024-01-07T09:20:16;16.40;;;10.13;;
9117;SDS011;4594;50.994;7.126;2024-01-07T09:22:42;13.73;;;10.07;;
9117;SDS011;4594;50.994;7.126;2024-01-07T09:25:08;14.93;;;10.03;;
9117;SDS011;4594;50.994;7.126;2024-01-07T09:27:35;16.03;;;10.80;;
9117;SDS011;4594;50.994;7.126;2024-01-07T09:30:00;14.27;;;9.73;;
9117;SDS011;4594;50.994;7.126;2024-01-07T09:32:26;14.67;;;10.37;;
9117;SDS011;4594;50.994;7.126;2024-01-07T09:34:52;13.53;;;9.60;;
9117;SDS011;4594;50.994;7.126;2024-01-07T09:37:18;12.70;;;8.93;;
9117;SDS011;4594;50.994;7.126;2024-01-07T09:39:44;10.63;;;8.07;;
9117;SDS011;4594;50.994;7.126;2024-01-07T09:42:14;12.00;;;9.30;;
9117;SDS011;4594;50.994;7.126;2024-01-07T09:44:42;10.93;;;8.40;;
9117;SDS011;4594;50.994;7.126;2024-01-07T09:47:12;10.83;;;8.13;;
9117;SDS011;4594;50.994;7.126;2024-01-07T09:49:40;11.07;;;8.17;;
9117;SDS011;4594;50.994;7.126;2024-01-07T09:52:08;11.23;;;8.50;;
9117;SDS011;4594;50.994;7.126;2024-01-07T09:54:39;10.60;;;8.13;;
9117;SDS011;4594;50.994;7.126;2024-01-07T09:57:06;7.73;;;6.87;;
9117;SDS011;4594;50.994;7.126;2024-01-07T09:59:33;8.23;;;7.00;;
9117;SDS011;4594;50.994;7.126;2024-01-07T10:02:04;9.87;;;7.03;;
9117;SDS011;4594;50.994;7.126;2024-01-07T10:04:29;7.57;;;6.53;;
9117;SDS011;4594;50.994;7.126;2024-01-07T10:06:56;8.27;;;6.67;;
9117;SDS011;4594;50.994;7.126;2024-01-07T10:09:22;7.63;;;6.20;;
9117;SDS011;4594;50.994;7.126;2024-01-07T10:11:51;8.13;;;7.20;;
9117;SDS011;4594;50.994;7.126;2024-01-07T10:14:17;9.50;;;7.47;;
9117;SDS011;4594;50.994;7.126;2024-01-07T10:16:44;8.77;;;6.93;;
9117;SDS011;4594;50.994;7.126;2024-01-07T10:19:10;7.17;;;6.47;;
9117;SDS011;4594;50.994;7.126;2024-01-07T10:21:36;7.80;;;6.40;;
9117;SDS011;4594;50.994;7.126;2024-01-07T10:24:11;8.27;;;7.30;;
9117;SDS011;4594;50.994;7.126;2024-01-07T10:26:38;8.33;;;6.93;;
9117;SDS011;4594;50.994;7.126;2024-01-07T10:29:06;8.37;;;7.47;;
9117;SDS011;4594;50.994;7.126;2024-01-07T10:31:37;11.10;;;8.20;;
9117;SDS011;4594;50.994;7.126;2024-01-07T10:34:07;9.60;;;8.47;;
9117;SDS011;4594;50.994;7.126;2024-01-07T10:36:35;12.17;;;8.77;;
9117;SDS011;4594;50.994;7.126;2024-01-07T10:39:02;12.97;;;10.07;;
9117;SDS011;4594;50.994;7.126;2024-01-07T10:41:28;12.73;;;9.37;;
9117;SDS011;4594;50.994;7.126;2024-01-07T10:43:56;13.40;;;9.67;;
9117;SDS011;4594;50.994;7.126;2024-01-07T10:46:22;12.20;;;9.50;;
9117;SDS011;4594;50.994;7.126;2024-01-07T10:48:55;12.00;;;9.23;;
9117;SDS011;4594;50.994;7.126;2024-01-07T10:51:27;12.57;;;9.33;;
9117;SDS011;4594;50.994;7.126;2024-01-07T10:53:53;15.37;;;9.97;;
9117;SDS011;4594;50.994;7.126;2024-01-07T10:56:24;14.90;;;10.27;;
9117;SDS011;4594;50.994;7.126;2024-01-07T10:59:01;15.30;;;10.60;;
9117;SDS011;4594;50.994;7.126;2024-01-07T11:01:29;13.73;;;9.47;;
9117;SDS011;4594;50.994;7.126;2024-01-07T11:04:06;16.43;;;10.97;;
9117;SDS011;4594;50.994;7.126;2024-01-07T11:06:43;14.87;;;10.57;;
9117;SDS011;4594;50.994;7.126;2024-01-07T11:09:26;13.00;;;9.63;;
9117;SDS011;4594;50.994;7.126;2024-01-07T11:11:58;13.33;;;10.07;;
9117;SDS011;4594;50.994;7.126;2024-01-07T11:17:04;13.47;;;10.07;;
9117;SDS011;4594;50.994;7.126;2024-01-07T11:19:34;13.73;;;10.20;;
9117;SDS011;4594;50.994;7.126;2024-01-07T11:24:54;13.10;;;9.37;;
9117;SDS011;4594;50.994;7.126;2024-01-07T11:27:25;12.73;;;10.13;;
9117;SDS011;4594;50.994;7.126;2024-01-07T11:30:03;13.13;;;9.97;;
9117;SDS011;4594;50.994;7.126;2024-01-07T11:32:33;14.20;;;10.90;;
9117;SDS011;4594;50.994;7.126;2024-01-07T11:34:59;19.67;;;11.70;;
9117;SDS011;4594;50.994;7.126;2024-01-07T11:37:27;27.67;;;14.40;;
9117;SDS011;4594;50.994;7.126;2024-01-07T11:39:56;23.00;;;13.20;;
9117;SDS011;4594;50.994;7.126;2024-01-07T11:42:23;18.70;;;11.43;;
9117;SDS011;4594;50.994;7.126;2024-01-07T11:44:52;14.40;;;10.53;;
9117;SDS011;4594;50.994;7.126;2024-01-07T11:47:20;14.03;;;10.03;;
9117;SDS011;4594;50.994;7.126;2024-01-07T11:49:47;14.30;;;11.67;;
9117;SDS011;4594;50.994;7.126;2024-01-07T11:52:16;14.50;;;10.37;;
9117;SDS011;4594;50.994;7.126;2024-01-07T11:54:43;11.20;;;9.77;;
9117;SDS011;4594;50.994;7.126;2024-01-07T11:57:10;12.30;;;9.93;;
9117;SDS011;4594;50.994;7.126;2024-01-07T11:59:36;12.43;;;9.90;;
9117;SDS011;4594;50.994;7.126;2024-01-07T12:02:03;13.13;;;9.63;;
9117;SDS011;4594;50.994;7.126;2024-01-07T12:04:32;13.13;;;10.20;;
9117;SDS011;4594;50.994;7.126;2024-01-07T12:07:01;13.03;;;10.57;;
9117;SDS011;4594;50.994;7.126;2024-01-07T12:09:28;10.53;;;9.30;;
9117;SDS011;4594;50.994;7.126;2024-01-07T12:11:55;17.77;;;12.07;;
9117;SDS011;4594;50.994;7.126;2024-01-07T12:14:21;14.03;;;9.83;;
9117;SDS011;4594;50.994;7.126;2024-01-07T12:16:47;14.80;;;10.70;;
9117;SDS011;4594;50.994;7.126;2024-01-07T12:19:13;12.30;;;9.57;;
9117;SDS011;4594;50.994;7.126;2024-01-07T12:21:39;13.77;;;10.00;;
9117;SDS011;4594;50.994;7.126;2024-01-07T12:24:05;15.90;;;9.87;;
9117;SDS011;4594;50.994;7.126;2024-01-07T12:26:31;13.17;;;9.50;;
9117;SDS011;4594;50.994;7.126;2024-01-07T12:28:58;12.63;;;8.90;;
9117;SDS011;4594;50.994;7.126;2024-01-07T12:31:28;12.40;;;8.77;;
9117;SDS011;4594;50.994;7.126;2024-01-07T12:33:59;14.53;;;9.90;;
9117;SDS011;4594;50.994;7.126;2024-01-07T12:36:25;18.30;;;11.37;;
9117;SDS011;4594;50.994;7.126;2024-01-07T12:38:51;13.37;;;9.33;;
9117;SDS011;4594;50.994;7.126;2024-01-07T12:41:21;13.33;;;9.03;;
9117;SDS011;4594;50.994;7.126;2024-01-07T12:43:48;13.83;;;10.13;;
9117;SDS011;4594;50.994;7.126;2024-01-07T12:46:15;13.40;;;9.10;;
9117;SDS011;4594;50.994;7.126;2024-01-07T12:48:41;10.47;;;8.57;;
9117;SDS011;4594;50.994;7.126;2024-01-07T12:51:06;11.97;;;8.30;;
9117;SDS011;4594;50.994;7.126;2024-01-07T12:53:32;12.33;;;8.37;;
9117;SDS011;4594;50.994;7.126;2024-01-07T12:55:58;9.43;;;7.53;;
9117;SDS011;4594;50.994;7.126;2024-01-07T12:58:24;10.83;;;7.73;;
9117;SDS011;4594;50.994;7.126;2024-01-07T13:00:49;10.70;;;7.77;;
9117;SDS011;4594;50.994;7.126;2024-01-07T13:03:15;9.10;;;7.37;;
9117;SDS011;4594;50.994;7.126;2024-01-07T13:05:44;12.63;;;8.67;;
9117;SDS011;4594;50.994;7.126;2024-01-07T13:08:11;8.67;;;7.37;;
9117;SDS011;4594;50.994;7.126;2024-01-07T13:10:38;11.97;;;7.70;;
9117;SDS011;4594;50.994;7.126;2024-01-07T13:13:04;9.93;;;7.30;;
9117;SDS011;4594;50.994;7.126;2024-01-07T13:15:30;8.60;;;6.83;;
9117;SDS011;4594;50.994;7.126;2024-01-07T13:17:56;8.53;;;6.97;;
9117;SDS011;4594;50.994;7.126;2024-01-07T13:20:22;9.20;;;6.53;;
9117;SDS011;4594;50.994;7.126;2024-01-07T13:22:48;8.20;;;6.93;;
9117;SDS011;4594;50.994;7.126;2024-01-07T13:25:16;7.23;;;6.47;;
9117;SDS011;4594;50.994;7.126;2024-01-07T13:27:42;7.33;;;6.13;;
9117;SDS011;4594;50.994;7.126;2024-01-07T13:30:07;7.47;;;5.93;;
9117;SDS011;4594;50.994;7.126;2024-01-07T13:32:34;6.43;;;5.73;;
9117;SDS011;4594;50.994;7.126;2024-01-07T13:35:01;6.37;;;5.77;;
9117;SDS011;4594;50.994;7.126;2024-01-07T13:37:29;6.77;;;5.60;;
9117;SDS011;4594;50.994;7.126;2024-01-07T13:39:58;6.90;;;6.07;;
9117;SDS011;4594;50.994;7.126;2024-01-07T13:42:24;6.47;;;5.87;;
9117;SDS011;4594;50.994;7.126;2024-01-07T13:44:49;8.43;;;6.03;;
9117;SDS011;4594;50.994;7.126;2024-01-07T13:47:15;7.33;;;6.10;;
9117;SDS011;4594;50.994;7.126;2024-01-07T13:49:42;7.00;;;6.30;;
9117;SDS011;4594;50.994;7.126;2024-01-07T13:52:09;6.30;;;5.70;;
9117;SDS011;4594;50.994;7.126;2024-01-07T13:54:36;8.63;;;7.27;;
9117;SDS011;4594;50.994;7.126;2024-01-07T13:57:02;7.57;;;6.60;;
9117;SDS011;4594;50.994;7.126;2024-01-07T13:59:29;7.87;;;7.07;;
9117;SDS011;4594;50.994;7.126;2024-01-07T14:01:55;7.97;;;6.93;;
9117;SDS011;4594;50.994;7.126;2024-01-07T14:04:22;8.63;;;7.03;;
9117;SDS011;4594;50.994;7.126;2024-01-07T14:06:53;6.40;;;5.77;;
9117;SDS011;4594;50.994;7.126;2024-01-07T14:09:20;6.27;;;5.77;;
9117;SDS011;4594;50.994;7.126;2024-01-07T14:11:47;7.03;;;5.57;;
9117;SDS011;4594;50.994;7.126;2024-01-07T14:14:12;5.50;;;5.00;;
9117;SDS011;4594;50.994;7.126;2024-01-07T14:16:38;5.53;;;5.10;;
9117;SDS011;4594;50.994;7.126;2024-01-07T14:19:05;6.17;;;5.67;;
9117;SDS011;4594;50.994;7.126;2024-01-07T14:21:31;5.63;;;5.23;;
9117;SDS011;4594;50.994;7.126;2024-01-07T14:23:57;6.30;;;5.70;;
9117;SDS011;4594;50.994;7.126;2024-01-07T14:26:23;5.30;;;4.90;;
9117;SDS011;4594;50.994;7.126;2024-01-07T14:28:52;8.33;;;6.10;;
9117;SDS011;4594;50.994;7.126;2024-01-07T14:31:18;6.47;;;5.83;;
9117;SDS011;4594;50.994;7.126;2024-01-07T14:33:43;5.73;;;5.23;;
9117;SDS011;4594;50.994;7.126;2024-01-07T14:36:09;5.60;;;5.10;;
9117;SDS011;4594;50.994;7.126;2024-01-07T14:38:42;6.10;;;5.23;;
9117;SDS011;4594;50.994;7.126;2024-01-07T14:41:12;5.37;;;4.87;;
9117;SDS011;4594;50.994;7.126;2024-01-07T14:43:41;5.90;;;5.30;;
9117;SDS011;4594;50.994;7.126;2024-01-07T14:46:07;5.20;;;4.70;;
9117;SDS011;4594;50.994;7.126;2024-01-07T14:48:33;5.33;;;4.93;;
9117;SDS011;4594;50.994;7.126;2024-01-07T14:51:00;5.90;;;5.40;;
9117;SDS011;4594;50.994;7.126;2024-01-07T14:53:26;5.53;;;5.13;;
9117;SDS011;4594;50.994;7.126;2024-01-07T14:55:56;7.17;;;5.57;;
9117;SDS011;4594;50.994;7.126;2024-01-07T14:58:22;6.17;;;5.47;;
9117;SDS011;4594;50.994;7.126;2024-01-07T15:00:51;5.40;;;4.53;;
9117;SDS011;4594;50.994;7.126;2024-01-07T15:03:18;4.67;;;4.27;;
9117;SDS011;4594;50.994;7.126;2024-01-07T15:05:44;4.10;;;3.80;;